createdAt,value
2022-10-22T00:04:36.530Z,26.70
2022-10-22T00:09:38.381Z,24.13
2022-10-22T00:14:40.435Z,26.30
2022-10-22T00:19:42.167Z,25.25
2022-10-22T00:24:43.921Z,24.30
2022-10-22T00:29:45.686Z,20.88
2022-10-22T00:34:49.768Z,24.60
2022-10-22T00:39:51.747Z,24.77
2022-10-22T00:44:53.472Z,22.00
2022-10-22T00:49:55.280Z,22.90
2022-10-22T00:54:56.969Z,24.85
2022-10-22T00:59:58.911Z,23.02
2022-10-22T01:05:00.772Z,23.98
2022-10-22T01:10:02.463Z,25.25
2022-10-22T01:15:04.382Z,26.85
2022-10-22T01:20:08.021Z,26.50
2022-10-22T01:25:09.875Z,24.50
2022-10-22T01:30:12.101Z,23.35
2022-10-22T01:35:15.685Z,21.08
2022-10-22T01:40:17.458Z,19.90
2022-10-22T01:45:19.193Z,22.88
2022-10-22T01:50:21.042Z,29.70
2022-10-22T01:55:22.704Z,22.80
2022-10-22T02:00:24.530Z,24.58
2022-10-22T02:05:26.461Z,20.95
2022-10-22T02:10:31.032Z,23.73
2022-10-22T02:15:35.477Z,25.10
2022-10-22T02:20:37.194Z,28.83
2022-10-22T02:25:39.190Z,25.38
2022-10-22T02:30:41.296Z,25.55
2022-10-22T02:35:42.965Z,27.55
2022-10-22T02:40:44.874Z,26.70
2022-10-22T02:45:46.570Z,25.27
2022-10-22T02:50:48.470Z,26.17
2022-10-22T02:55:50.436Z,28.00
2022-10-22T03:00:52.120Z,29.17
2022-10-22T03:05:53.877Z,26.85
2022-10-22T03:10:55.632Z,28.48
2022-10-22T03:15:57.347Z,26.27
2022-10-22T03:20:59.192Z,23.70
2022-10-22T03:26:00.912Z,25.60
2022-10-22T03:31:02.647Z,26.60
2022-10-22T03:36:04.404Z,29.73
2022-10-22T03:41:06.138Z,21.70
2022-10-22T03:46:07.776Z,25.10
2022-10-22T03:51:09.527Z,25.38
2022-10-22T03:56:11.429Z,26.40
2022-10-22T04:01:13.228Z,26.83
2022-10-22T04:06:14.976Z,23.52
2022-10-22T04:11:17.097Z,23.23
2022-10-22T04:16:18.725Z,24.38
2022-10-22T04:21:24.136Z,24.10
2022-10-22T04:26:26.987Z,22.85
2022-10-22T04:31:28.929Z,27.45
2022-10-22T04:36:30.746Z,23.70
2022-10-22T04:41:32.476Z,28.67
2022-10-22T04:46:34.220Z,28.15
2022-10-22T04:51:36.092Z,27.90
2022-10-22T04:56:37.767Z,25.67
2022-10-22T05:01:42.702Z,27.08
2022-10-22T05:06:45.393Z,24.85
2022-10-22T05:11:46.954Z,35.22
2022-10-22T05:16:49.300Z,28.33
2022-10-22T05:21:51.596Z,24.73
2022-10-22T05:26:53.306Z,26.25
2022-10-22T05:31:57.359Z,24.17
2022-10-22T05:36:59.018Z,26.38
2022-10-22T05:42:00.782Z,29.98
2022-10-22T05:47:02.416Z,29.75
2022-10-22T05:52:04.389Z,28.50
2022-10-22T05:57:06.129Z,26.90
2022-10-22T06:02:07.839Z,25.27
2022-10-22T06:07:09.588Z,31.30
2022-10-22T06:12:11.370Z,26.15
2022-10-22T06:17:13.049Z,24.50
2022-10-22T06:22:14.809Z,21.65
2022-10-22T06:27:16.487Z,25.27
2022-10-22T06:32:18.093Z,25.50
2022-10-22T06:37:19.743Z,23.92
2022-10-22T06:42:22.355Z,24.70
2022-10-22T06:47:24.305Z,21.17
2022-10-22T06:52:25.965Z,21.67
2022-10-22T06:57:27.719Z,24.88
2022-10-22T07:02:29.604Z,22.52
2022-10-22T07:07:31.178Z,22.33
2022-10-22T07:12:32.973Z,28.02
2022-10-22T07:17:34.599Z,22.70
2022-10-22T07:22:36.599Z,22.58
2022-10-22T07:27:38.358Z,25.55
2022-10-22T07:32:40.143Z,26.80
2022-10-22T07:37:42.141Z,23.27
2022-10-22T07:42:45.876Z,26.40
2022-10-22T07:47:47.540Z,24.02
2022-10-22T07:52:49.646Z,24.02
2022-10-22T07:57:51.224Z,24.75
2022-10-22T08:02:53.150Z,21.60
2022-10-22T08:07:54.734Z,26.48
2022-10-22T08:12:56.477Z,21.30
2022-10-22T08:17:58.246Z,25.05
2022-10-22T08:23:00.148Z,26.85
2022-10-22T08:28:02.504Z,24.77
2022-10-22T08:33:04.451Z,24.38
2022-10-22T08:38:06.134Z,26.08
2022-10-22T08:43:07.838Z,23.70
2022-10-22T08:48:09.637Z,31.00
2022-10-22T08:53:11.494Z,30.52
2022-10-22T08:58:13.149Z,30.00
2022-10-22T09:03:15.005Z,30.90
2022-10-22T09:08:16.817Z,27.27
2022-10-22T09:13:18.835Z,28.83
2022-10-22T09:18:20.709Z,27.70
2022-10-22T09:23:22.333Z,31.23
2022-10-22T09:28:24.115Z,29.77
2022-10-22T09:33:25.768Z,33.65
2022-10-22T09:38:27.411Z,29.38
2022-10-22T09:43:29.100Z,29.85
2022-10-22T09:48:32.017Z,29.60
2022-10-22T09:53:33.800Z,32.28
2022-10-22T09:58:35.460Z,33.13
2022-10-22T10:03:37.352Z,34.70
2022-10-22T10:13:54.629Z,31.50
2022-10-22T10:18:56.457Z,35.67
2022-10-22T10:23:58.205Z,36.03
2022-10-22T10:28:59.858Z,34.20
2022-10-22T10:34:01.595Z,38.70
2022-10-22T10:39:03.384Z,40.55
2022-10-22T10:44:05.134Z,46.80
2022-10-22T10:49:06.883Z,54.92
2022-10-22T10:54:08.547Z,52.08
2022-10-22T10:59:10.139Z,55.83
2022-10-22T11:04:11.864Z,55.30
2022-10-22T11:09:13.827Z,46.67
2022-10-22T11:14:15.626Z,50.30
2022-10-22T11:19:22.855Z,45.28
2022-10-22T11:24:34.964Z,45.53
2022-10-22T11:29:36.662Z,44.67
2022-10-22T11:34:38.519Z,35.70
2022-10-22T11:39:40.206Z,37.28
2022-10-22T11:44:41.997Z,33.70
2022-10-22T11:49:43.937Z,33.22
2022-10-22T11:54:45.566Z,23.33
2022-10-22T11:59:47.527Z,27.02
2022-10-22T12:04:49.536Z,24.20
2022-10-22T12:14:52.942Z,21.13
2022-10-22T12:19:56.410Z,17.85
2022-10-22T12:25:00.293Z,15.05
2022-10-22T12:30:02.065Z,13.48
2022-10-22T12:35:03.872Z,9.40
2022-10-22T12:40:05.535Z,8.10
2022-10-22T12:45:07.297Z,10.35
2022-10-22T12:50:09.072Z,8.48
2022-10-22T12:55:10.665Z,11.02
2022-10-22T13:00:12.611Z,9.07
2022-10-22T13:05:14.307Z,10.75
2022-10-22T13:10:16.151Z,15.65
2022-10-22T13:15:18.043Z,19.75
2022-10-22T13:20:20.247Z,27.15
2022-10-22T13:25:21.968Z,25.67
2022-10-22T13:30:23.663Z,23.67
2022-10-22T13:35:25.475Z,24.55
2022-10-22T13:40:27.058Z,26.17
2022-10-22T13:45:28.945Z,26.88
2022-10-22T13:50:31.021Z,30.58
2022-10-22T13:55:32.652Z,31.73
2022-10-22T14:00:34.486Z,32.72
2022-10-22T14:05:36.839Z,39.47
2022-10-22T14:10:38.562Z,39.75
2022-10-22T14:15:40.245Z,40.22
2022-10-22T14:20:42.154Z,34.17
2022-10-22T14:25:44.052Z,36.97
2022-10-22T14:30:45.914Z,28.17
2022-10-22T14:35:47.574Z,28.35
2022-10-22T14:40:49.193Z,29.73
2022-10-22T14:45:50.810Z,26.15
2022-10-22T14:50:52.612Z,29.08
2022-10-22T14:55:54.762Z,26.67
2022-10-22T15:00:56.528Z,28.20
2022-10-22T15:05:58.156Z,28.35
2022-10-22T15:10:59.826Z,33.88
2022-10-22T15:16:01.677Z,29.40
2022-10-22T15:21:03.323Z,43.13
2022-10-22T15:26:05.257Z,36.42
2022-10-22T15:31:06.915Z,52.78
2022-10-22T15:36:09.705Z,67.20
2022-10-22T15:41:11.518Z,50.38
2022-10-22T15:46:13.355Z,43.78
2022-10-22T15:51:15.245Z,47.92
2022-10-22T15:56:17.107Z,37.00
2022-10-22T16:01:18.979Z,30.42
2022-10-22T16:06:20.954Z,33.88
2022-10-22T16:11:22.882Z,38.80
2022-10-22T16:16:24.826Z,45.47
2022-10-22T16:21:26.583Z,65.75
2022-10-22T16:26:28.253Z,88.55
2022-10-22T16:31:30.114Z,109.97
2022-10-22T16:36:31.800Z,93.88
2022-10-22T16:41:33.859Z,69.47
2022-10-22T16:46:35.663Z,53.15
2022-10-22T16:51:37.407Z,47.75
2022-10-22T16:56:39.280Z,58.50
2022-10-22T17:01:41.650Z,52.67
2022-10-22T17:06:43.601Z,35.38
2022-10-22T17:15:01.198Z,44.05
2022-10-22T17:20:23.128Z,49.40
2022-10-22T17:25:45.002Z,50.53
2022-10-22T17:31:06.849Z,46.42
2022-10-22T17:36:31.812Z,53.92
2022-10-22T17:41:56.798Z,53.97
2022-10-22T17:47:18.604Z,46.25
2022-10-22T17:52:40.859Z,48.45
2022-10-22T17:58:02.789Z,42.47
2022-10-22T18:03:24.603Z,30.73
2022-10-22T18:08:46.553Z,35.03
2022-10-22T18:14:49.101Z,35.05
2022-10-22T18:20:10.916Z,37.28
2022-10-22T18:25:32.768Z,35.15
2022-10-22T18:30:54.640Z,31.63
2022-10-22T18:37:41.637Z,22.90
2022-10-22T18:43:03.614Z,23.98
2022-10-22T18:48:25.437Z,26.60
2022-10-22T18:53:59.069Z,23.40
2022-10-22T18:59:27.479Z,26.55
2022-10-22T19:04:49.303Z,24.75
2022-10-22T19:10:11.147Z,24.63
2022-10-22T19:15:33.029Z,26.35
2022-10-22T19:20:54.846Z,28.95
2022-10-22T19:26:16.685Z,27.05
2022-10-22T19:31:38.527Z,26.20
2022-10-22T19:37:00.361Z,26.02
2022-10-22T19:42:22.165Z,27.02
2022-10-22T19:47:43.975Z,26.20
2022-10-22T19:53:05.816Z,26.88
2022-10-22T19:58:27.672Z,23.58
2022-10-22T20:03:49.501Z,34.28
2022-10-22T20:09:11.414Z,33.67
2022-10-22T20:14:33.243Z,28.33
2022-10-22T20:19:55.151Z,29.33
2022-10-22T20:25:16.984Z,32.90
2022-10-22T20:30:38.817Z,26.55
2022-10-22T20:36:00.639Z,29.60
2022-10-22T20:41:22.469Z,29.90
2022-10-22T20:46:44.394Z,26.20
2022-10-22T20:52:06.283Z,23.88
2022-10-22T20:57:28.108Z,28.20
2022-10-22T21:02:49.937Z,27.25
2022-10-22T21:08:11.749Z,24.45
2022-10-22T21:13:33.576Z,25.05
2022-10-22T21:18:55.402Z,23.60
2022-10-22T21:24:17.234Z,22.30
2022-10-22T21:29:39.064Z,19.80
2022-10-22T21:35:00.892Z,21.10
2022-10-22T21:40:22.684Z,24.70
2022-10-22T21:45:44.499Z,20.13
2022-10-22T21:51:06.335Z,22.73
2022-10-22T21:56:28.169Z,21.77
2022-10-22T22:01:50.007Z,24.27
2022-10-22T22:07:11.809Z,22.02
2022-10-22T22:12:33.626Z,25.63
2022-10-22T22:17:55.455Z,27.75
2022-10-22T22:23:17.287Z,22.40
2022-10-22T22:28:39.123Z,23.08
2022-10-22T22:34:00.951Z,27.58
2022-10-22T22:39:22.784Z,28.77
2022-10-22T22:44:44.622Z,27.65
2022-10-22T22:50:06.459Z,29.85
2022-10-22T22:55:28.280Z,26.50
2022-10-22T23:00:50.152Z,32.33
2022-10-22T23:06:11.999Z,31.50
2022-10-22T23:11:33.826Z,33.53
2022-10-22T23:16:55.647Z,32.78
2022-10-22T23:22:17.498Z,33.08
2022-10-22T23:27:39.433Z,35.92
2022-10-22T23:33:01.483Z,32.30
2022-10-22T23:38:23.296Z,33.22
2022-10-22T23:43:45.115Z,39.17
2022-10-22T23:49:06.932Z,34.35
2022-10-22T23:54:28.745Z,30.65
2022-10-22T23:59:50.581Z,35.05
